METAR Data
IDs: Format: Raw Decoded Include TAF

Data at: 1359 UTC 21 Feb 2019

METAR for:PAAK (Atka Arpt, AK, US)
Text:PAAK 211356Z AUTO 17014G24KT 110V220 10SM BKN032 OVC040 02/M04 A3015 RMK AO2 PK WND 17028/1312 SLP210 T00221039 FZRANO
Temperature: 2.2°C ( 36°F)
Dewpoint: -3.9°C ( 25°F) [RH = 64%]
Pressure (altimeter):30.15 inches Hg (1021.1 mb) [Sea level pressure: 1021.0 mb]
Winds:from the S (170 degrees) at 16 MPH (14 knots; 7.2 m/s) gusting to 28 MPH (24 knots; 12.3 m/s)
Visibility:10 or more sm (16+ km)
Ceiling:3200 feet AGL
Clouds: broken clouds at 3200 feet AGL, overcast cloud deck at 4000 feet AGL
QC Flag:automated observation with no human augmentation
Text:PAAK 211256Z AUTO 17012G21KT 10SM OVC033 02/M04 A3017 RMK AO2 SLP218 T00221039 FZRANO
Temperature: 2.2°C ( 36°F)
Dewpoint: -3.9°C ( 25°F) [RH = 64%]
Pressure (altimeter):30.17 inches Hg (1021.8 mb) [Sea level pressure: 1021.8 mb]
Winds:from the S (170 degrees) at 14 MPH (12 knots; 6.2 m/s) gusting to 24 MPH (21 knots; 10.8 m/s)
Visibility:10 or more sm (16+ km)
Ceiling:3300 feet AGL
Clouds: overcast cloud deck at 3300 feet AGL
QC Flag:automated observation with no human augmentation
Text:PAAK 211156Z AUTO 15014G21KT 10SM BKN035 OVC046 02/M05 A3019 RMK AO2 SLP225 60002 70011 T00221050 10022 21006 58022 FZRANO
Temperature: 2.2°C ( 36°F)
Dewpoint: -5.0°C ( 23°F) [RH = 59%]
Pressure (altimeter):30.19 inches Hg (1022.4 mb) [Sea level pressure: 1022.5 mb]
Winds:from the SSE (150 degrees) at 16 MPH (14 knots; 7.2 m/s) gusting to 24 MPH (21 knots; 10.8 m/s)
Visibility:10 or more sm (16+ km)
Ceiling:3500 feet AGL
Clouds: broken clouds at 3500 feet AGL, overcast cloud deck at 4600 feet AGL
QC Flag:automated observation with no human augmentation
Text:PAAK 211056Z AUTO 16014G23KT 10SM SCT034 OVC045 02/M05 A3022 RMK AO2 RAB26E42 SLP234 P0000 T00221050 FZRANO
Temperature: 2.2°C ( 36°F)
Dewpoint: -5.0°C ( 23°F) [RH = 59%]
Pressure (altimeter):30.22 inches Hg (1023.5 mb) [Sea level pressure: 1023.4 mb]
Winds:from the SSE (160 degrees) at 16 MPH (14 knots; 7.2 m/s) gusting to 26 MPH (23 knots; 11.8 m/s)
Visibility:10 or more sm (16+ km)
Ceiling:4500 feet AGL
Clouds: scattered clouds at 3400 feet AGL, overcast cloud deck at 4500 feet AGL
QC Flag:automated observation with no human augmentation
Text:PAAK 210956Z AUTO 16011KT 10SM BKN032 OVC042 02/M04 A3024 RMK AO2 SLP242 P0002 T00221039 FZRANO
Temperature: 2.2°C ( 36°F)
Dewpoint: -3.9°C ( 25°F) [RH = 64%]
Pressure (altimeter):30.24 inches Hg (1024.1 mb) [Sea level pressure: 1024.2 mb]
Winds:from the SSE (160 degrees) at 13 MPH (11 knots; 5.7 m/s)
Visibility:10 or more sm (16+ km)
Ceiling:3200 feet AGL
Clouds: broken clouds at 3200 feet AGL, overcast cloud deck at 4200 feet AGL
QC Flag:automated observation with no human augmentation
Text:PAAK 210856Z AUTO 17016G20KT 10SM OVC036 02/M05 A3025 RMK AO2 SLP246 T00221050 400281006 58007 FZRANO
Temperature: 2.2°C ( 36°F)
Dewpoint: -5.0°C ( 23°F) [RH = 59%]
Pressure (altimeter):30.25 inches Hg (1024.5 mb) [Sea level pressure: 1024.6 mb]
Winds:from the S (170 degrees) at 18 MPH (16 knots; 8.2 m/s) gusting to 23 MPH (20 knots; 10.3 m/s)
Visibility:10 or more sm (16+ km)
Ceiling:3600 feet AGL
Clouds: overcast cloud deck at 3600 feet AGL
QC Flag:automated observation with no human augmentation
Text:PAAK 210756Z AUTO 17011KT 10SM BKN034 02/M04 A3026 RMK AO2 SLP249 T00221044 FZRANO
Temperature: 2.2°C ( 36°F)
Dewpoint: -4.4°C ( 24°F) [RH = 62%]
Pressure (altimeter):30.26 inches Hg (1024.8 mb) [Sea level pressure: 1024.9 mb]
Winds:from the S (170 degrees) at 13 MPH (11 knots; 5.7 m/s)
Visibility:10 or more sm (16+ km)
Ceiling:3400 feet AGL
Clouds: broken clouds at 3400 feet AGL
QC Flag:automated observation with no human augmentation
Text:PAAK 210656Z AUTO 34003KT 10SM OVC042 00/M03 A3028 RMK AO2 SLP254 T00001033 FZRANO
Temperature: 0.0°C ( 32°F)
Dewpoint: -3.3°C ( 26°F) [RH = 78%]
Pressure (altimeter):30.28 inches Hg (1025.5 mb) [Sea level pressure: 1025.4 mb]
Winds:from the NNW (340 degrees) at 3 MPH (3 knots; 1.5 m/s)
Visibility:10 or more sm (16+ km)
Ceiling:4200 feet AGL
Clouds: overcast cloud deck at 4200 feet AGL
QC Flag:automated observation with no human augmentation
Text:PAAK 210556Z AUTO VRB03KT 10SM FEW042 M01/M04 A3028 RMK AO2 SLP254 P0001 60001 T10061039 10028 21006 53007 FZRANO
Temperature: -0.6°C ( 31°F)
Dewpoint: -3.9°C ( 25°F) [RH = 78%]
Pressure (altimeter):30.28 inches Hg (1025.5 mb) [Sea level pressure: 1025.4 mb]
Winds:variable direction winds at 3 MPH (3 knots; 1.5 m/s)
Visibility:10 or more sm (16+ km)
Ceiling:at least 12,000 feet AGL
Clouds: few clouds at 4200 feet AGL
QC Flag:automated observation with no human augmentation
Text:PAAK 210456Z AUTO 21009KT 10SM FEW045 01/M04 A3027 RMK AO2 SLP251 T00111039 FZRANO
Temperature: 1.1°C ( 34°F)
Dewpoint: -3.9°C ( 25°F) [RH = 69%]
Pressure (altimeter):30.27 inches Hg (1025.1 mb) [Sea level pressure: 1025.1 mb]
Winds:from the SSW (210 degrees) at 10 MPH (9 knots; 4.6 m/s)
Visibility:10 or more sm (16+ km)
Ceiling:at least 12,000 feet AGL
Clouds: few clouds at 4500 feet AGL
QC Flag:automated observation with no human augmentation
Text:PAAK 210356Z AUTO 22005KT 10SM OVC045 02/M04 A3026 RMK AO2 SLP249 T00221044 FZRANO
Temperature: 2.2°C ( 36°F)
Dewpoint: -4.4°C ( 24°F) [RH = 62%]
Pressure (altimeter):30.26 inches Hg (1024.8 mb) [Sea level pressure: 1024.9 mb]
Winds:from the SW (220 degrees) at 6 MPH (5 knots; 2.6 m/s)
Visibility:10 or more sm (16+ km)
Ceiling:4500 feet AGL
Clouds: overcast cloud deck at 4500 feet AGL
QC Flag:automated observation with no human augmentation
Text:PAAK 210256Z AUTO 24005KT 10SM CLR 03/M04 A3025 RMK AO2 SLP246 T00281039 53006
Temperature: 2.8°C ( 37°F)
Dewpoint: -3.9°C ( 25°F) [RH = 61%]
Pressure (altimeter):30.25 inches Hg (1024.5 mb) [Sea level pressure: 1024.6 mb]
Winds:from the WSW (240 degrees) at 6 MPH (5 knots; 2.6 m/s)
Visibility:10 or more sm (16+ km)
Ceiling:at least 12,000 feet AGL
Clouds:sky clear below 12,000 feet AGL
QC Flag:automated observation with no human augmentation